Time;durP1;ratioP1;P1;durP2;ratioP2;P2;SDS_P1;SDS_P2;PMS_P1;PMS_P2;Temp;Humidity;BMP_temperature;BMP_pressure;BME280_temperature;BME280_humidity;BME280_pressure;Samples;Min_cycle;Max_cycle;Signal;HPM_P1;HPM_P2
2024/03/28 00:02:01;;;;;;;2.43;2.23;;;;;;;11.24;52.70;94883.28;5030521;28;20202;-70
2024/03/28 00:04:27;;;;;;;3.00;2.67;;;;;;;11.34;52.20;94882.81;5038440;28;20422;-69
2024/03/28 00:06:52;;;;;;;3.87;2.60;;;;;;;11.43;52.00;94875.44;5032216;28;20171;-70
2024/03/28 00:09:18;;;;;;;2.93;2.70;;;;;;;11.47;51.66;94876.63;5029181;28;20173;-70
2024/03/28 00:11:43;;;;;;;4.67;2.73;;;;;;;11.40;52.02;94881.13;5027319;28;20235;-71
2024/03/28 00:14:08;;;;;;;2.60;2.40;;;;;;;11.32;52.51;94885.63;5029420;28;20245;-69
2024/03/28 00:16:34;;;;;;;2.43;2.23;;;;;;;11.27;51.97;94884.66;5031634;28;20195;-69
2024/03/28 00:18:59;;;;;;;2.53;2.33;;;;;;;11.08;52.21;94884.59;5037456;28;20699;-71
2024/03/28 00:21:25;;;;;;;2.47;2.00;;;;;;;11.13;52.43;94868.22;5032461;28;20176;-70
2024/03/28 00:23:50;;;;;;;2.97;2.50;;;;;;;11.09;52.00;94865.22;5034535;28;20238;-71
2024/03/28 00:26:16;;;;;;;3.00;2.07;;;;;;;11.02;52.08;94864.47;5029858;28;20184;-69
2024/03/28 00:28:41;;;;;;;2.67;2.00;;;;;;;10.97;52.63;94861.66;5034558;28;20183;-70
2024/03/28 00:31:09;;;;;;;2.23;2.03;;;;;;;11.08;51.72;94874.13;5030437;28;20175;-70
2024/03/28 00:33:34;;;;;;;4.27;2.50;;;;;;;10.83;52.05;94872.25;5028570;28;20700;-70
2024/03/28 00:36:01;;;;;;;2.30;2.10;;;;;;;10.84;51.64;94880.91;5019275;28;20411;-71
2024/03/28 00:38:26;;;;;;;2.57;2.37;;;;;;;10.84;51.63;94873.84;5028101;28;20455;-69
2024/03/28 00:40:53;;;;;;;12.00;2.47;;;;;;;10.89;52.08;94876.63;5036938;28;20188;-69
2024/03/28 00:43:19;;;;;;;2.90;2.60;;;;;;;10.91;51.42;94873.78;5036636;28;20730;-71
2024/03/28 00:45:45;;;;;;;4.50;2.30;;;;;;;10.80;51.24;94867.44;5027275;28;20521;-69
2024/03/28 00:48:11;;;;;;;2.53;2.33;;;;;;;10.70;51.68;94862.63;5033135;28;20934;-70
2024/03/28 00:50:37;;;;;;;2.60;2.40;;;;;;;10.50;52.11;94870.59;5034051;28;20481;-70
2024/03/28 00:53:03;;;;;;;5.10;2.77;;;;;;;10.53;51.82;94862.34;5028500;28;20205;-70
2024/03/28 00:55:28;;;;;;;2.60;2.40;;;;;;;10.44;52.62;94872.22;5034181;28;20187;-71
2024/03/28 00:57:54;;;;;;;2.23;2.03;;;;;;;10.45;51.97;94860.75;5028138;28;20418;-71
2024/03/28 01:00:20;;;;;;;2.83;2.63;;;;;;;10.52;51.75;94862.56;5028783;28;20265;-70
2024/03/28 01:02:46;;;;;;;2.43;2.23;;;;;;;10.46;52.37;94856.31;5030324;28;20626;-70
2024/03/28 01:05:12;;;;;;;2.50;2.30;;;;;;;10.57;52.02;94862.72;5038937;28;20501;-70
2024/03/28 01:07:37;;;;;;;3.20;2.60;;;;;;;10.66;51.93;94856.22;5037010;28;20423;-71
2024/03/28 01:10:03;;;;;;;6.87;2.67;;;;;;;10.69;51.88;94850.56;5030980;28;20866;-67
2024/03/28 01:12:29;;;;;;;2.70;2.50;;;;;;;10.67;51.47;94846.56;5029605;28;20277;-68
2024/03/28 01:14:55;;;;;;;2.60;2.40;;;;;;;10.67;51.25;94842.09;5028626;28;20182;-68
2024/03/28 01:17:20;;;;;;;2.80;2.60;;;;;;;10.74;51.29;94836.81;5036560;28;20215;-71
2024/03/28 01:19:46;;;;;;;4.60;2.60;;;;;;;10.60;50.99;94831.66;5028031;28;20214;-69
2024/03/28 01:22:11;;;;;;;2.53;2.33;;;;;;;10.57;50.97;94833.91;5035122;28;20218;-69
2024/03/28 01:24:37;;;;;;;2.63;2.27;;;;;;;10.54;51.40;94831.69;5023354;28;20179;-70
2024/03/28 01:27:03;;;;;;;2.17;1.97;;;;;;;10.62;51.25;94833.28;5034638;28;20305;-70
2024/03/28 01:29:29;;;;;;;2.50;2.27;;;;;;;10.64;51.00;94837.31;5036248;28;20175;-70
2024/03/28 01:31:54;;;;;;;2.80;2.60;;;;;;;10.56;50.89;94838.34;5027936;28;20438;-70
2024/03/28 01:34:20;;;;;;;2.90;2.60;;;;;;;10.54;51.11;94831.69;5036501;28;20714;-69
2024/03/28 01:36:45;;;;;;;2.70;2.50;;;;;;;10.51;51.28;94837.38;5049227;28;20171;-72
2024/03/28 01:39:11;;;;;;;3.10;2.80;;;;;;;10.23;51.01;94835.84;5039124;28;20253;-69
2024/03/28 01:41:36;;;;;;;2.43;2.23;;;;;;;10.23;51.14;94830.63;5034588;28;20734;-71
2024/03/28 01:44:02;;;;;;;2.53;2.27;;;;;;;10.27;50.69;94816.91;5030750;28;20220;-70
2024/03/28 01:46:27;;;;;;;3.20;2.03;;;;;;;10.23;50.89;94817.53;5034695;28;20220;-71
2024/03/28 01:48:54;;;;;;;3.77;2.40;;;;;;;10.29;50.89;94814.88;5026549;28;20729;-70
2024/03/28 01:51:20;;;;;;;2.30;2.10;;;;;;;10.21;50.80;94817.72;5029646;28;20282;-71
2024/03/28 01:53:46;;;;;;;4.83;1.97;;;;;;;10.20;50.92;94810.91;5031137;28;20900;-69
2024/03/28 01:56:13;;;;;;;2.93;2.60;;;;;;;10.27;51.19;94814.28;5027965;28;20194;-69
2024/03/28 01:58:39;;;;;;;3.13;2.20;;;;;;;10.33;50.54;94819.72;5037321;28;20458;-69
2024/03/28 02:01:04;;;;;;;2.37;2.17;;;;;;;10.40;50.53;94818.66;5038722;28;20930;-70
2024/03/28 02:03:30;;;;;;;2.60;2.40;;;;;;;10.43;50.36;94825.31;5029874;28;20200;-70
2024/03/28 02:05:55;;;;;;;6.30;2.23;;;;;;;10.43;50.21;94827.94;5042947;28;20190;-70
2024/03/28 02:08:21;;;;;;;2.27;2.13;;;;;;;10.42;49.64;94816.66;5029052;28;20554;-70
2024/03/28 02:10:46;;;;;;;2.17;2.00;;;;;;;10.25;50.23;94824.16;5043802;28;20179;-70
2024/03/28 02:13:12;;;;;;;2.93;2.30;;;;;;;10.34;50.49;94818.69;5025815;28;20195;-70
2024/03/28 02:15:38;;;;;;;4.43;2.40;;;;;;;10.40;50.33;94823.13;5041973;28;20195;-70
2024/03/28 02:18:04;;;;;;;2.50;2.30;;;;;;;10.39;50.38;94816.28;5045378;28;20262;-70
2024/03/28 02:20:29;;;;;;;2.30;2.10;;;;;;;10.40;50.33;94828.34;5029934;28;20203;-70
2024/03/28 02:22:55;;;;;;;2.30;2.20;;;;;;;10.32;50.27;94823.34;5035603;28;20442;-70
2024/03/28 02:25:20;;;;;;;2.63;2.43;;;;;;;10.20;50.30;94831.84;5037926;28;20186;-71
2024/03/28 02:27:46;;;;;;;2.20;2.10;;;;;;;10.24;50.57;94827.78;5027821;28;20176;-70
2024/03/28 02:30:12;;;;;;;2.40;2.20;;;;;;;10.27;50.34;94827.38;5041489;28;20172;-71
2024/03/28 02:32:38;;;;;;;2.40;2.20;;;;;;;10.28;50.28;94826.38;5028503;28;20287;-71
2024/03/28 02:35:05;;;;;;;2.70;2.30;;;;;;;10.19;50.25;94835.47;5039700;28;20433;-71
2024/03/28 02:37:30;;;;;;;5.03;2.23;;;;;;;10.21;50.45;94822.97;5032814;28;20173;-70
2024/03/28 02:39:56;;;;;;;2.60;2.40;;;;;;;10.16;50.86;94814.94;5026915;28;20819;-71
2024/03/28 02:42:22;;;;;;;3.83;2.47;;;;;;;10.16;50.19;94820.19;5041798;28;20203;-70
2024/03/28 02:44:47;;;;;;;2.47;2.20;;;;;;;10.07;50.19;94809.13;5031894;28;20183;-72
2024/03/28 02:47:13;;;;;;;2.40;2.20;;;;;;;10.06;50.58;94814.59;5040588;28;20609;-70
2024/03/28 02:49:38;;;;;;;3.27;2.97;;;;;;;9.97;51.43;94806.94;5041382;28;20180;-71
2024/03/28 02:52:04;;;;;;;3.57;2.57;;;;;;;10.04;51.17;94812.16;5040150;28;20200;-71
2024/03/28 02:54:31;;;;;;;3.20;2.40;;;;;;;10.06;51.14;94811.97;5042760;28;20190;-68
2024/03/28 02:57:04;;;;;;;3.30;3.00;;;;;;;9.96;51.15;94810.56;5031064;28;20426;-70
2024/03/28 02:59:30;;;;;;;3.30;2.73;;;;;;;10.02;51.13;94829.09;5043036;28;21040;-69
2024/03/28 03:01:56;;;;;;;3.00;2.50;;;;;;;9.92;51.77;94826.91;5031450;28;20446;-69
2024/03/28 03:04:21;;;;;;;2.30;2.10;;;;;;;9.89;51.64;94835.97;5035679;28;20416;-69
2024/03/28 03:06:47;;;;;;;2.30;2.10;;;;;;;9.88;51.64;94839.59;5032104;28;20270;-70
2024/03/28 03:09:12;;;;;;;2.70;2.50;;;;;;;9.92;51.48;94840.78;5033234;28;20414;-71
2024/03/28 03:11:38;;;;;;;6.03;3.10;;;;;;;9.91;51.34;94835.75;5031996;28;20609;-71
2024/03/28 03:14:04;;;;;;;3.30;2.57;;;;;;;9.84;51.29;94827.94;5026778;28;20204;-71
2024/03/28 03:16:29;;;;;;;2.50;2.27;;;;;;;9.89;51.18;94825.50;5037523;28;20190;-71
2024/03/28 03:18:54;;;;;;;2.83;2.50;;;;;;;9.68;51.55;94821.34;5039262;28;20242;-71
2024/03/28 03:21:21;;;;;;;3.00;2.30;;;;;;;9.72;52.23;94814.69;5036234;28;20206;-70
2024/03/28 03:23:49;;;;;;;2.10;2.00;;;;;;;9.61;51.65;94816.13;5034143;28;20238;-69
2024/03/28 03:26:24;;;;;;;2.90;2.70;;;;;;;9.46;52.47;94820.75;5039439;28;20426;-72
2024/03/28 03:34:36;;;;;;;2.67;2.40;;;;;;;9.63;52.08;94816.72;5032025;28;20516;-69
2024/03/28 03:37:03;;;;;;;3.20;2.60;;;;;;;9.59;51.79;94806.88;5032815;28;20431;-69
2024/03/28 03:39:29;;;;;;;5.03;2.27;;;;;;;9.63;51.69;94805.47;5037431;28;20485;-70
2024/03/28 03:41:57;;;;;;;2.40;2.20;;;;;;;9.61;51.10;94803.03;5036443;28;20888;-70
2024/03/28 03:44:23;;;;;;;3.33;2.40;;;;;;;9.63;51.66;94800.25;5029376;28;20199;-72
2024/03/28 03:46:48;;;;;;;2.90;2.70;;;;;;;9.58;51.51;94808.66;5027353;28;20954;-70
2024/03/28 03:49:14;;;;;;;2.60;2.40;;;;;;;9.50;51.61;94812.34;5032356;28;20230;-69
2024/03/28 03:51:39;;;;;;;3.80;2.60;;;;;;;9.42;51.63;94809.91;5041033;28;20183;-72
2024/03/28 03:54:05;;;;;;;2.43;2.23;;;;;;;9.35;51.56;94807.31;5035968;28;20593;-70
2024/03/28 03:56:30;;;;;;;4.60;2.77;;;;;;;9.34;51.73;94810.94;5031355;28;20212;-69
2024/03/28 03:58:56;;;;;;;2.30;2.10;;;;;;;9.41;51.60;94816.16;5041793;28;20644;-71
2024/03/28 04:01:23;;;;;;;2.60;2.40;;;;;;;9.48;51.67;94818.75;5029608;28;20183;-69
2024/03/28 04:03:48;;;;;;;3.17;2.87;;;;;;;9.38;51.33;94814.75;5029482;28;20798;-71
2024/03/28 04:06:15;;;;;;;2.70;2.50;;;;;;;9.43;51.20;94808.13;5029278;28;20453;-71
2024/03/28 04:08:40;;;;;;;4.57;3.07;;;;;;;9.43;51.49;94795.84;5029135;28;20226;-71
2024/03/28 04:11:06;;;;;;;3.10;2.80;;;;;;;9.44;51.97;94791.44;5037508;28;20457;-71
2024/03/28 04:13:31;;;;;;;2.63;2.43;;;;;;;9.40;51.23;94791.00;5028785;28;20207;-70
2024/03/28 04:15:56;;;;;;;3.63;3.33;;;;;;;9.44;51.74;94780.97;5034318;28;20210;-71
2024/03/28 04:18:22;;;;;;;3.40;3.10;;;;;;;9.47;51.29;94770.09;5028714;28;20546;-68
2024/03/28 04:20:48;;;;;;;5.17;4.67;;;;;;;9.28;51.67;94769.94;5035616;28;20261;-70
2024/03/28 04:23:13;;;;;;;4.10;3.77;;;;;;;9.31;51.77;94761.69;5034034;28;20298;-69
2024/03/28 04:25:39;;;;;;;3.70;3.00;;;;;;;9.32;52.35;94763.31;5032323;28;20503;-71
2024/03/28 04:28:05;;;;;;;2.87;2.67;;;;;;;9.26;52.67;94758.88;5042220;28;20850;-68
2024/03/28 04:30:33;;;;;;;3.37;3.03;;;;;;;9.32;52.38;94763.31;5036124;28;20536;-69
2024/03/28 04:32:59;;;;;;;3.80;3.10;;;;;;;9.34;52.15;94761.25;5032900;28;20204;-69
2024/03/28 04:35:24;;;;;;;3.50;2.83;;;;;;;9.32;51.80;94752.84;5028272;28;20492;-69
2024/03/28 04:37:51;;;;;;;5.23;2.70;;;;;;;9.37;51.69;94758.25;5034674;28;20187;-70
2024/03/28 04:40:19;;;;;;;3.83;2.80;;;;;;;9.27;51.39;94752.66;5030137;28;20219;-70
2024/03/28 04:42:51;;;;;;;3.30;2.50;;;;;;;9.10;51.77;94749.66;5029529;28;20916;-71
2024/03/28 04:45:20;;;;;;;3.03;2.70;;;;;;;8.88;51.88;94752.47;5034949;28;20439;-69
2024/03/28 04:47:50;;;;;;;3.50;3.20;;;;;;;9.07;51.93;94755.28;5023909;28;20453;-70
2024/03/28 04:50:19;;;;;;;3.80;3.40;;;;;;;9.06;51.35;94753.66;5043493;28;20425;-68
2024/03/28 04:52:45;;;;;;;3.20;3.00;;;;;;;8.95;51.38;94742.03;5036123;28;20525;-71
2024/03/28 04:55:10;;;;;;;4.77;2.90;;;;;;;8.97;51.25;94740.00;5029544;28;21164;-69
2024/03/28 04:57:36;;;;;;;4.10;3.70;;;;;;;9.03;51.94;94741.81;5024167;28;20421;-69
2024/03/28 05:00:06;;;;;;;6.50;4.00;;;;;;;8.99;51.77;94732.00;5027665;28;20212;-69
2024/03/28 05:02:32;;;;;;;5.37;4.17;;;;;;;9.02;51.96;94724.53;5026634;28;20582;-69
2024/03/28 05:04:57;;;;;;;3.73;3.43;;;;;;;8.99;51.81;94735.41;5027631;28;20423;-71
2024/03/28 05:07:23;;;;;;;3.73;3.43;;;;;;;9.06;51.88;94728.38;5034623;28;20183;-72
2024/03/28 05:09:49;;;;;;;4.30;2.90;;;;;;;9.09;51.22;94724.53;5030174;28;20696;-72
2024/03/28 05:12:15;;;;;;;3.93;3.50;;;;;;;9.11;51.22;94732.16;5029636;28;20557;-72
2024/03/28 05:14:41;;;;;;;3.90;3.60;;;;;;;8.98;51.56;94736.41;5029543;28;20426;-71
2024/03/28 05:17:07;;;;;;;3.97;3.67;;;;;;;8.99;51.84;94734.59;5025273;28;20603;-73
2024/03/28 05:19:33;;;;;;;4.17;3.87;;;;;;;8.95;51.96;94736.00;5044053;28;20200;-70
2024/03/28 05:21:58;;;;;;;4.40;4.00;;;;;;;8.84;52.10;94738.22;5027224;28;20473;-71
2024/03/28 05:24:24;;;;;;;4.37;3.97;;;;;;;8.90;52.04;94747.84;5037517;28;20836;-72
2024/03/28 05:26:50;;;;;;;4.40;3.70;;;;;;;8.81;52.02;94740.44;5042344;28;20188;-70
2024/03/28 05:29:16;;;;;;;3.73;3.43;;;;;;;8.84;52.09;94740.84;5024231;28;20238;-71
2024/03/28 05:31:41;;;;;;;4.70;3.93;;;;;;;8.84;52.13;94746.06;5026374;28;20427;-72
2024/03/28 05:34:07;;;;;;;4.53;3.90;;;;;;;8.90;51.34;94745.25;5029047;28;20302;-73
2024/03/28 05:36:33;;;;;;;4.87;4.27;;;;;;;8.81;51.91;94748.28;5036091;28;20270;-71
2024/03/28 05:38:59;;;;;;;5.30;4.47;;;;;;;8.88;51.72;94751.69;5036606;28;20545;-70
2024/03/28 05:41:24;;;;;;;4.20;3.80;;;;;;;8.99;51.78;94758.13;5038028;28;20624;-70
2024/03/28 05:43:49;;;;;;;5.20;4.70;;;;;;;8.94;52.01;94750.06;5037636;28;20238;-70
2024/03/28 05:46:15;;;;;;;4.40;4.00;;;;;;;8.97;51.79;94747.84;5035524;28;20898;-72
2024/03/28 05:48:40;;;;;;;8.53;4.10;;;;;;;8.84;52.27;94753.91;5021503;28;20762;-71
2024/03/28 05:51:06;;;;;;;4.03;3.63;;;;;;;8.96;52.16;94748.84;5027736;28;20272;-70
2024/03/28 05:53:31;;;;;;;4.20;3.83;;;;;;;9.20;51.41;94746.59;5020620;28;20203;-70
2024/03/28 05:55:57;;;;;;;4.83;4.30;;;;;;;9.29;52.28;94747.19;5031151;28;20668;-71
2024/03/28 05:58:22;;;;;;;4.30;3.90;;;;;;;9.45;51.83;94745.97;5021491;28;20181;-72
2024/03/28 06:00:48;;;;;;;4.03;3.73;;;;;;;9.51;51.44;94734.69;5012442;28;20190;-72
2024/03/28 06:03:13;;;;;;;5.80;4.33;;;;;;;9.53;51.29;94737.91;5016641;28;20209;-72
2024/03/28 06:05:39;;;;;;;5.33;3.77;;;;;;;9.48;50.84;94737.72;5012560;28;20243;-72
2024/03/28 06:08:04;;;;;;;5.23;4.03;;;;;;;9.55;51.35;94733.28;5015823;28;20215;-73
2024/03/28 06:10:30;;;;;;;4.87;4.10;;;;;;;9.64;50.76;94736.47;5016536;28;20180;-74
2024/03/28 06:12:55;;;;;;;11.30;4.33;;;;;;;9.63;51.12;94733.03;5034493;28;20846;-70
2024/03/28 06:15:21;;;;;;;5.53;4.07;;;;;;;9.76;51.11;94737.44;5025003;28;20195;-72
2024/03/28 06:17:46;;;;;;;6.40;4.07;;;;;;;9.72;51.04;94740.66;5011311;28;20231;-73
2024/03/28 06:20:12;;;;;;;6.00;3.70;;;;;;;9.78;50.99;94745.06;5025890;28;20243;-70
2024/03/28 06:22:38;;;;;;;4.23;3.53;;;;;;;9.86;51.41;94744.81;5039853;28;20299;-70
2024/03/28 06:25:07;;;;;;;4.27;3.40;;;;;;;9.80;51.11;94743.84;5031204;28;20179;-69
2024/03/28 06:27:32;;;;;;;4.17;3.17;;;;;;;9.82;50.37;94741.81;5017267;28;20451;-70
2024/03/28 06:29:58;;;;;;;3.20;3.00;;;;;;;9.81;50.26;94731.56;5031771;28;20453;-69
2024/03/28 06:32:29;;;;;;;3.43;3.13;;;;;;;9.75;50.75;94735.00;5028956;28;20234;-70
2024/03/28 06:34:56;;;;;;;3.83;2.90;;;;;;;9.74;50.39;94738.63;5031298;28;20239;-70
2024/03/28 06:37:22;;;;;;;5.20;2.40;;;;;;;9.83;50.54;94726.91;5039622;28;20525;-72
2024/03/28 06:39:47;;;;;;;3.47;3.13;;;;;;;9.90;50.61;94737.34;5040264;28;20453;-71
2024/03/28 06:42:13;;;;;;;3.00;2.80;;;;;;;9.97;51.15;94746.78;5045278;28;20294;-70
2024/03/28 06:44:43;;;;;;;4.27;2.93;;;;;;;10.05;50.43;94750.97;5033939;28;20551;-71
2024/03/28 06:47:08;;;;;;;2.93;2.67;;;;;;;10.04;51.07;94748.56;5022544;28;20192;-69
2024/03/28 06:49:34;;;;;;;4.10;2.73;;;;;;;10.11;50.30;94759.78;5030449;28;20792;-70
2024/03/28 06:51:59;;;;;;;3.33;2.30;;;;;;;10.39;54.87;94766.53;5037282;28;20736;-68
2024/03/28 06:54:24;;;;;;;2.90;2.07;;;;;;;10.96;58.09;94763.13;5037493;28;20184;-69
2024/03/28 06:56:50;;;;;;;1.90;1.70;;;;;;;11.40;57.79;94768.38;5042263;28;20191;-69
2024/03/28 06:59:15;;;;;;;5.07;1.93;;;;;;;11.61;51.07;94775.00;5040862;28;20205;-71
2024/03/28 07:01:42;;;;;;;4.37;2.20;;;;;;;11.55;49.14;94783.75;5033177;28;20187;-70
2024/03/28 07:04:08;;;;;;;3.50;3.20;;;;;;;11.40;49.12;94795.41;5030237;28;20200;-71
2024/03/28 07:06:35;;;;;;;3.80;3.50;;;;;;;11.09;49.27;94804.13;5031977;28;21053;-71
2024/03/28 07:09:00;;;;;;;3.10;2.80;;;;;;;10.67;50.21;94815.13;5043861;28;20456;-71
2024/03/28 07:11:26;;;;;;;4.50;3.30;;;;;;;10.59;50.97;94803.88;5043911;28;20461;-69
2024/03/28 07:13:51;;;;;;;3.43;3.07;;;;;;;10.71;51.33;94804.00;5026242;28;20223;-70
2024/03/28 07:16:17;;;;;;;3.10;2.80;;;;;;;10.54;52.12;94795.84;5031845;28;20794;-71
2024/03/28 07:18:44;;;;;;;4.13;3.20;;;;;;;10.32;52.59;94787.47;5028408;28;20226;-70
2024/03/28 07:21:09;;;;;;;7.80;3.70;;;;;;;10.36;52.72;94782.63;5027262;28;20427;-71
2024/03/28 07:23:36;;;;;;;4.27;3.50;;;;;;;10.38;53.19;94776.22;5021845;28;20721;-71
2024/03/28 07:26:02;;;;;;;7.37;3.63;;;;;;;10.40;53.36;94787.25;5026040;28;20183;-69
2024/03/28 07:28:28;;;;;;;4.00;3.43;;;;;;;10.35;53.64;94812.44;5024312;28;20438;-70
2024/03/28 07:30:53;;;;;;;4.50;3.20;;;;;;;10.34;53.87;94821.28;5037204;28;20433;-70
2024/03/28 07:33:19;;;;;;;4.60;3.40;;;;;;;10.42;53.79;94814.03;5027247;28;20227;-70
2024/03/28 07:35:45;;;;;;;4.37;3.97;;;;;;;10.43;54.10;94815.66;5028176;28;20194;-70
2024/03/28 07:38:11;;;;;;;4.57;3.30;;;;;;;10.42;54.54;94827.13;5039947;28;20729;-71
2024/03/28 07:40:37;;;;;;;3.17;2.90;;;;;;;9.89;55.15;94843.03;5022431;28;20466;-69
2024/03/28 07:43:03;;;;;;;2.83;2.63;;;;;;;9.80;54.92;94834.59;5025425;28;20450;-70
2024/03/28 07:45:28;;;;;;;3.40;3.10;;;;;;;10.18;55.12;94817.34;5023082;28;20198;-69
2024/03/28 07:47:54;;;;;;;7.00;3.27;;;;;;;10.18;54.74;94818.16;5038641;28;20190;-69
2024/03/28 07:50:20;;;;;;;4.27;3.43;;;;;;;10.31;54.54;94819.91;5031096;28;20198;-70
2024/03/28 07:52:46;;;;;;;3.83;3.30;;;;;;;10.29;54.79;94820.13;5039469;28;20203;-69
2024/03/28 07:55:12;;;;;;;2.80;2.60;;;;;;;10.49;54.28;94829.72;5032713;28;20975;-69
2024/03/28 07:57:37;;;;;;;3.80;3.50;;;;;;;10.45;54.36;94857.34;5038540;28;20188;-69
2024/03/28 08:00:03;;;;;;;4.17;3.77;;;;;;;10.67;54.35;94878.78;5031377;28;20575;-70
2024/03/28 08:02:29;;;;;;;5.70;3.10;;;;;;;10.56;54.39;94874.19;5025517;28;20212;-70
2024/03/28 08:04:54;;;;;;;3.33;3.00;;;;;;;10.52;54.67;94881.69;5032567;28;20430;-69
2024/03/28 08:07:24;;;;;;;3.37;3.07;;;;;;;10.61;54.09;94895.34;5029203;28;20191;-71
2024/03/28 08:09:49;;;;;;;3.70;3.20;;;;;;;10.68;54.25;94905.78;5035599;28;20388;-72
2024/03/28 08:12:15;;;;;;;2.90;2.70;;;;;;;10.39;54.62;94908.72;5032059;28;20489;-70
2024/03/28 08:14:40;;;;;;;3.27;2.50;;;;;;;10.37;54.85;94902.84;5026248;28;20259;-71
2024/03/28 08:17:07;;;;;;;3.87;3.20;;;;;;;10.66;54.56;94918.28;5039297;28;20611;-71
2024/03/28 08:19:33;;;;;;;4.40;3.03;;;;;;;10.74;54.91;94921.47;5032020;28;20211;-70
2024/03/28 08:22:00;;;;;;;4.10;3.27;;;;;;;10.76;55.12;94913.38;5029770;28;20537;-72
2024/03/28 08:24:30;;;;;;;2.80;2.60;;;;;;;10.64;55.37;94936.00;5033523;28;20425;-72
2024/03/28 08:26:56;;;;;;;2.80;2.60;;;;;;;10.58;55.74;94943.72;5011305;28;20510;-71
2024/03/28 08:29:22;;;;;;;2.90;2.70;;;;;;;10.68;55.73;94945.06;5024552;28;21018;-69
2024/03/28 08:31:47;;;;;;;3.10;2.80;;;;;;;10.62;55.71;94954.56;5025611;28;20224;-70
2024/03/28 08:34:13;;;;;;;3.00;2.70;;;;;;;10.64;55.91;94962.22;5034749;28;20191;-70
2024/03/28 08:36:38;;;;;;;3.10;2.60;;;;;;;10.73;55.60;94985.34;5030820;28;20263;-70
2024/03/28 08:39:05;;;;;;;2.50;2.30;;;;;;;10.63;55.92;95002.50;5033003;28;20203;-72
2024/03/28 08:41:31;;;;;;;3.10;2.77;;;;;;;10.56;56.67;95003.34;5018139;28;20681;-70
2024/03/28 08:43:57;;;;;;;2.50;2.30;;;;;;;10.34;57.24;95010.59;5024644;28;21112;-70
2024/03/28 08:46:22;;;;;;;4.40;2.90;;;;;;;10.64;56.51;94996.25;5024648;28;20427;-71
2024/03/28 08:48:48;;;;;;;2.20;2.00;;;;;;;10.54;56.55;94989.66;5036154;28;20180;-70
2024/03/28 08:51:16;;;;;;;4.33;2.50;;;;;;;10.52;56.73;94999.50;5023480;28;20191;-69
2024/03/28 08:53:42;;;;;;;2.13;2.00;;;;;;;10.79;56.60;95011.72;5033998;28;20208;-71
2024/03/28 08:56:08;;;;;;;2.67;2.47;;;;;;;10.93;56.13;95029.00;5030076;28;20455;-70
2024/03/28 08:58:35;;;;;;;2.70;1.87;;;;;;;10.53;56.66;95019.47;5024402;28;20438;-71
2024/03/28 09:01:00;;;;;;;2.23;1.80;;;;;;;10.85;56.55;95019.53;5027133;28;20207;-72
2024/03/28 09:03:26;;;;;;;2.33;1.97;;;;;;;10.95;56.28;95031.44;5019592;28;20545;-71
2024/03/28 09:05:52;;;;;;;2.00;1.80;;;;;;;10.95;56.38;95032.22;5037936;28;20492;-70
2024/03/28 09:08:19;;;;;;;1.60;1.50;;;;;;;11.02;55.69;95029.56;5019678;28;20455;-70
2024/03/28 09:10:53;;;;;;;2.40;1.57;;;;;;;11.10;55.55;95039.81;5030919;28;20214;-70
2024/03/28 09:13:19;;;;;;;1.40;1.30;;;;;;;11.21;55.79;95051.47;5010668;28;20455;-69
2024/03/28 09:15:45;;;;;;;1.50;1.40;;;;;;;10.74;55.70;95062.09;5023373;28;20442;-69
2024/03/28 09:18:11;;;;;;;1.40;1.10;;;;;;;11.02;55.78;95069.72;5006124;28;20207;-70
2024/03/28 09:20:38;;;;;;;1.83;1.40;;;;;;;11.22;55.31;95059.13;5018322;28;20545;-70
2024/03/28 09:23:03;;;;;;;2.33;1.00;;;;;;;11.40;54.79;95059.47;5029314;28;20580;-70
2024/03/28 09:25:29;;;;;;;1.40;1.30;;;;;;;11.18;55.21;95057.13;5030811;28;20188;-70
2024/03/28 09:27:54;;;;;;;1.47;1.30;;;;;;;11.10;55.20;95075.72;5022412;28;20188;-71
2024/03/28 09:30:21;;;;;;;1.43;1.13;;;;;;;11.20;54.77;95055.91;5024728;28;20184;-70
2024/03/28 09:32:47;;;;;;;1.30;1.00;;;;;;;11.31;54.82;95078.03;5022979;28;20204;-71
2024/03/28 09:35:12;;;;;;;1.83;1.07;;;;;;;10.72;55.53;95079.84;5028352;28;20579;-71
2024/03/28 09:37:38;;;;;;;1.23;0.90;;;;;;;10.96;55.11;95074.97;5029915;28;20180;-71
2024/03/28 09:40:08;;;;;;;1.87;1.13;;;;;;;11.03;54.75;95081.78;5024010;28;20204;-70
2024/03/28 09:42:36;;;;;;;0.90;0.70;;;;;;;10.77;54.80;95090.53;5023536;28;20249;-71
2024/03/28 09:45:04;;;;;;;1.00;0.90;;;;;;;10.93;55.16;95094.50;5022013;28;20422;-70
2024/03/28 09:47:31;;;;;;;2.17;1.00;;;;;;;11.16;54.76;95095.84;5018275;28;20504;-70
2024/03/28 09:49:57;;;;;;;1.00;0.90;;;;;;;11.36;54.26;95116.75;5032532;28;20426;-70
2024/03/28 09:52:23;;;;;;;1.67;1.10;;;;;;;11.47;53.79;95121.34;5032254;28;20450;-69
2024/03/28 09:54:50;;;;;;;1.40;1.13;;;;;;;11.56;53.72;95127.16;5025456;28;20235;-69
2024/03/28 09:57:15;;;;;;;1.00;0.83;;;;;;;11.59;53.55;95126.75;5027864;28;20430;-70
2024/03/28 09:59:41;;;;;;;1.00;0.70;;;;;;;11.71;53.35;95118.19;5028741;28;20542;-71
2024/03/28 10:02:17;;;;;;;0.90;0.80;;;;;;;11.51;52.89;95129.63;5028897;28;20700;-71
2024/03/28 10:04:44;;;;;;;2.23;0.63;;;;;;;11.62;52.58;95115.00;5004304;28;20188;-71
2024/03/28 10:07:12;;;;;;;1.20;0.80;;;;;;;11.33;52.88;95117.97;5010266;28;20942;-70
2024/03/28 10:09:38;;;;;;;1.17;0.73;;;;;;;11.53;52.10;95114.44;5023805;28;20446;-70
2024/03/28 10:12:11;;;;;;;1.10;0.60;;;;;;;11.67;51.55;95096.84;5033128;28;20488;-69
2024/03/28 10:14:38;;;;;;;1.27;0.80;;;;;;;11.96;51.09;95084.16;5024011;28;20198;-71
2024/03/28 10:17:05;;;;;;;7.23;0.80;;;;;;;12.26;50.41;95080.91;5032641;28;20429;-70
2024/03/28 10:19:33;;;;;;;0.90;0.60;;;;;;;12.02;49.95;95066.78;5032198;28;20465;-70
2024/03/28 10:22:07;;;;;;;3.03;0.57;;;;;;;12.26;48.92;95099.28;5020101;28;20457;-70
2024/03/28 10:24:36;;;;;;;1.00;0.70;;;;;;;12.39;49.04;95106.28;5025823;28;20452;-71
2024/03/28 10:27:14;;;;;;;0.80;0.50;;;;;;;12.29;47.73;95088.38;5022613;28;20453;-70
2024/03/28 10:29:54;;;;;;;3.33;0.50;;;;;;;12.79;47.55;95074.34;5026918;28;20446;-70
2024/03/28 10:32:23;;;;;;;1.13;0.87;;;;;;;12.59;46.57;95085.88;5022741;28;20445;-70
2024/03/28 10:34:50;;;;;;;1.63;0.70;;;;;;;12.74;46.68;95075.00;5029901;28;20433;-71
2024/03/28 10:37:19;;;;;;;1.30;0.70;;;;;;;12.74;45.14;95077.63;5026973;28;20431;-70
2024/03/28 10:39:46;;;;;;;1.10;0.70;;;;;;;13.11;44.11;95099.69;5032714;28;20825;-71
2024/03/28 10:42:13;;;;;;;1.00;0.60;;;;;;;13.41;46.70;95088.47;5022132;28;20815;-71
2024/03/28 10:44:39;;;;;;;1.20;0.60;;;;;;;13.43;43.93;95112.72;5025763;28;20519;-71
2024/03/28 10:47:06;;;;;;;1.03;0.70;;;;;;;13.38;43.61;95097.59;5034220;28;20444;-71
2024/03/28 10:49:40;;;;;;;7.30;0.70;;;;;;;13.50;43.58;95095.00;5035948;28;20434;-71
2024/03/28 10:52:07;;;;;;;0.90;0.70;;;;;;;13.35;43.09;95111.97;5034667;28;21031;-71
2024/03/28 10:54:36;;;;;;;1.20;0.67;;;;;;;13.55;43.31;95110.94;5034782;28;20419;-71
2024/03/28 10:57:06;;;;;;;1.30;0.60;;;;;;;12.89;43.58;95113.28;5033537;28;20786;-71
2024/03/28 10:59:34;;;;;;;1.53;0.60;;;;;;;13.61;42.39;95119.78;5031291;28;20470;-71
2024/03/28 11:01:59;;;;;;;0.80;0.50;;;;;;;13.75;41.90;95110.69;5030313;28;20464;-71
2024/03/28 11:04:25;;;;;;;0.83;0.50;;;;;;;14.02;41.46;95112.97;5024138;28;20431;-71
2024/03/28 11:06:51;;;;;;;1.33;0.70;;;;;;;14.50;41.18;95123.56;5034817;28;20234;-71
2024/03/28 11:09:17;;;;;;;0.80;0.50;;;;;;;14.70;40.34;95115.38;5029397;28;20649;-70
2024/03/28 11:11:44;;;;;;;1.43;0.50;;;;;;;14.81;39.98;95116.38;5033923;28;20229;-71
2024/03/28 11:14:09;;;;;;;1.50;0.67;;;;;;;15.23;39.58;95126.00;5008085;28;20438;-70
2024/03/28 11:16:35;;;;;;;0.80;0.50;;;;;;;15.55;38.47;95122.91;5032438;28;20544;-71
2024/03/28 11:19:01;;;;;;;1.10;0.70;;;;;;;15.81;38.24;95119.72;5026117;28;20247;-70
2024/03/28 11:21:27;;;;;;;1.57;0.60;;;;;;;15.51;37.81;95130.50;5029858;28;20609;-72
2024/03/28 11:23:56;;;;;;;1.63;0.60;;;;;;;15.44;38.23;95129.81;5031758;28;20443;-70
2024/03/28 11:26:23;;;;;;;0.90;0.70;;;;;;;16.05;37.73;95122.28;5025851;28;20457;-69
2024/03/28 11:28:59;;;;;;;1.30;0.60;;;;;;;16.08;36.66;95134.19;5031581;28;20975;-70
2024/03/28 11:31:25;;;;;;;1.33;0.60;;;;;;;16.17;37.02;95151.28;5027767;28;20437;-69
2024/03/28 11:34:04;;;;;;;1.23;0.57;;;;;;;15.51;36.17;95147.13;5036712;28;20506;-70
2024/03/28 11:36:31;;;;;;;1.00;0.57;;;;;;;14.78;37.45;95164.31;5022923;28;20518;-70
2024/03/28 11:38:57;;;;;;;4.40;0.60;;;;;;;14.96;37.45;95158.91;5022524;28;20466;-70